Tuesday, January 15, 2019, 7:12 PM EST
Back to Local

KEEN, Keene, Dillant-hopkins Airport

Location: Keene, NH, United States Lat: 42.9
Local Time: 7:12 PM EST ( 0:12 GMT) Lon: -72.267
Time Zone: US/Eastern Elev: 488 ft

Show me the last for .
Show Decoded

2019-01-15 18:56 METAR KEEN 152356Z AUTO 00000KT 10SM FEW039 M05/M07 A3008 RMK AO2 SLP205
                 T10501072 10017 21050 53005 FZRANO $ =
2019-01-15 17:56 METAR KEEN 152256Z AUTO 00000KT 10SM OVC039 M03/M08 A3007 RMK AO2 SLP204
                 T10281083 FZRANO $ =
2019-01-15 16:56 METAR KEEN 152156Z AUTO 29003KT 10SM OVC035 M01/M07 A3006 RMK AO2 SLP200
                 T10111067 FZRANO $ =
2019-01-15 15:56 METAR KEEN 152056Z AUTO 32003KT 10SM OVC035 00/M07 A3006 RMK AO2 SLP200
                 T00001072 53001 FZRANO $ =
2019-01-15 14:56 METAR KEEN 151956Z AUTO 34003KT 10SM OVC035 00/M08 A3006 RMK AO2 SLP200
                 T00001083 FZRANO $ =
2019-01-15 13:56 METAR KEEN 151856Z AUTO 35004KT 10SM BKN039 00/M08 A3006 RMK AO2 SLP198
                 T00001083 FZRANO $ =
2019-01-15 12:56 METAR KEEN 151756Z AUTO 00000KT 10SM BKN037 01/M08 A3006 RMK AO2 UPE03 SLP201
                 P0000 60000 T00111083 10011 21150 58023 FZRANO $ =
2019-01-15 11:56 METAR KEEN 151656Z AUTO 00000KT 10SM UP OVC035 M01/M08 A3009 RMK AO2
                 UPB34E36B53SNB36E53 SLP209 P0000 T10111083 FZRANO $ =
2019-01-15 11:08 METAR KEEN 151608Z AUTO 18004KT 10SM SCT031 M04/M08 A3011 RMK AO2 FZRANO $ =
2019-01-15 10:56 METAR KEEN 151556Z AUTO 19003KT 10SM BKN029 M05/M07 A3012 RMK AO2 SLP220
                 T10501072 FZRANO $ =
2019-01-15 09:56 METAR KEEN 151456Z AUTO 00000KT 10SM OVC023 M07/M08 A3013 RMK AO2 SLP224
                 T10671083 51014 FZRANO $ =
2019-01-15 08:56 METAR KEEN 151356Z AUTO 22003KT 10SM BKN021 M11/M12 A3012 RMK AO2 SLP220
                 T11061117 FZRANO $ =
2019-01-15 08:48 METAR KEEN 151348Z AUTO 00000KT 10SM BKN021 M12/M13 A3012 RMK AO2 FZRANO $ =
2019-01-15 07:56 METAR KEEN 151256Z AUTO 19003KT 10SM CLR M14/M16 A3010 RMK AO2 SLP216 T11441161
                 FZRANO $ =
2019-01-15 06:56 METAR KEEN 151156Z AUTO 19003KT 10SM CLR M14/M16 A3009 RMK AO2 SLP209 T11441156
                 11122 21150 53006 FZRANO $ =
2019-01-15 05:56 METAR KEEN 151056Z AUTO 00000KT 10SM CLR M14/M16 A3008 RMK AO2 SLP206 T11441161
                 FZRANO $ =
2019-01-15 04:56 METAR KEEN 150956Z AUTO 00000KT 10SM CLR M14/M16 A3007 RMK AO2 SLP204 T11391156
                 FZRANO $ =
2019-01-15 03:56 METAR KEEN 150856Z AUTO 00000KT 10SM CLR M14/M16 A3007 RMK AO2 SLP203 T11391156
                 58003 FZRANO $ =
2019-01-15 02:56 METAR KEEN 150756Z AUTO 00000KT 10SM CLR M13/M15 A3008 RMK AO2 SLP206 T11331150
                 FZRANO $ =
2019-01-15 01:56 METAR KEEN 150656Z AUTO 00000KT 10SM CLR M13/M14 A3008 RMK AO2 SLP206 T11331144
                 FZRANO $ =
2019-01-15 00:56 METAR KEEN 150556Z AUTO 00000KT 10SM CLR M12/M13 A3008 RMK AO2 SLP205 T11221133
                 11072 21128 58013 FZRANO $ =
2019-01-14 23:56 METAR KEEN 150456Z AUTO 00000KT 10SM CLR M12/M13 A3009 RMK AO2 SLP210 T11171128
                 400061178 FZRANO $ =
2019-01-14 22:56 METAR KEEN 150356Z AUTO 00000KT 10SM CLR M11/M12 A3011 RMK AO2 SLP218 T11061117
                 FZRANO $ =
2019-01-14 21:56 METAR KEEN 150256Z AUTO 00000KT 10SM CLR M10/M11 A3011 RMK AO2 SLP218 T11001111
                 55003 FZRANO $ =
2019-01-14 20:56 METAR KEEN 150156Z AUTO 00000KT 10SM CLR M09/M11 A3011 RMK AO2 SLP218 T10941111
                 FZRANO $ =
2019-01-14 19:56 METAR KEEN 150056Z AUTO 00000KT 10SM CLR M09/M11 A3011 RMK AO2 SLP217 T10891111
                 FZRANO $ =

Support USWX by starting your Amazon purchase here.